sensor_id;sensor_type;location;lat;lon;timestamp;P1;P2;P0
55276;PMS5003;41136;51.478;-2.610;2023-07-20T00:01:56;2;2;
55276;PMS5003;41136;51.478;-2.610;2023-07-20T00:04:21;6;4;
55276;PMS5003;41136;51.478;-2.610;2023-07-20T00:06:47;3;3;
55276;PMS5003;41136;51.478;-2.610;2023-07-20T00:09:12;3;3;
55276;PMS5003;41136;51.478;-2.610;2023-07-20T00:11:37;3;3;
55276;PMS5003;41136;51.478;-2.610;2023-07-20T00:14:02;2;2;
55276;PMS5003;41136;51.478;-2.610;2023-07-20T00:16:28;3;3;
55276;PMS5003;41136;51.478;-2.610;2023-07-20T00:18:53;4;4;
55276;PMS5003;41136;51.478;-2.610;2023-07-20T00:21:18;4;3;
55276;PMS5003;41136;51.478;-2.610;2023-07-20T00:23:44;3;3;
55276;PMS5003;41136;51.478;-2.610;2023-07-20T00:26:09;4;4;
55276;PMS5003;41136;51.478;-2.610;2023-07-20T00:28:35;4;4;
55276;PMS5003;41136;51.478;-2.610;2023-07-20T00:31:00;3;3;
55276;PMS5003;41136;51.478;-2.610;2023-07-20T00:35:16;2;2;
55276;PMS5003;41136;51.478;-2.610;2023-07-20T00:37:41;8;5;
55276;PMS5003;41136;51.478;-2.610;2023-07-20T00:40:06;5;5;
55276;PMS5003;41136;51.478;-2.610;2023-07-20T00:42:31;4;4;
55276;PMS5003;41136;51.478;-2.610;2023-07-20T00:44:56;2;2;
55276;PMS5003;41136;51.478;-2.610;2023-07-20T00:47:22;2;2;
55276;PMS5003;41136;51.478;-2.610;2023-07-20T00:49:47;4;3;
55276;PMS5003;41136;51.478;-2.610;2023-07-20T00:52:13;4;3;
55276;PMS5003;41136;51.478;-2.610;2023-07-20T00:54:38;2;2;
55276;PMS5003;41136;51.478;-2.610;2023-07-20T00:57:04;3;2;
55276;PMS5003;41136;51.478;-2.610;2023-07-20T00:59:28;6;2;
55276;PMS5003;41136;51.478;-2.610;2023-07-20T01:01:54;4;4;
55276;PMS5003;41136;51.478;-2.610;2023-07-20T01:04:19;3;3;
55276;PMS5003;41136;51.478;-2.610;2023-07-20T01:06:45;2;2;
55276;PMS5003;41136;51.478;-2.610;2023-07-20T01:09:13;2;2;
55276;PMS5003;41136;51.478;-2.610;2023-07-20T01:11:36;4;4;
55276;PMS5003;41136;51.478;-2.610;2023-07-20T01:14:00;4;4;
55276;PMS5003;41136;51.478;-2.610;2023-07-20T01:16:26;4;3;
55276;PMS5003;41136;51.478;-2.610;2023-07-20T01:18:51;3;3;
55276;PMS5003;41136;51.478;-2.610;2023-07-20T01:21:18;2;2;
55276;PMS5003;41136;51.478;-2.610;2023-07-20T01:26:10;4;4;
55276;PMS5003;41136;51.478;-2.610;2023-07-20T01:28:37;2;2;
55276;PMS5003;41136;51.478;-2.610;2023-07-20T01:30:59;3;3;
55276;PMS5003;41136;51.478;-2.610;2023-07-20T01:33:22;5;3;
55276;PMS5003;41136;51.478;-2.610;2023-07-20T01:35:50;4;4;
55276;PMS5003;41136;51.478;-2.610;2023-07-20T01:38:13;4;4;
55276;PMS5003;41136;51.478;-2.610;2023-07-20T01:40:38;4;4;
55276;PMS5003;41136;51.478;-2.610;2023-07-20T01:43:04;5;3;
55276;PMS5003;41136;51.478;-2.610;2023-07-20T01:45:29;3;3;
55276;PMS5003;41136;51.478;-2.610;2023-07-20T01:47:54;2;2;
55276;PMS5003;41136;51.478;-2.610;2023-07-20T01:50:19;4;3;
55276;PMS5003;41136;51.478;-2.610;2023-07-20T01:52:45;4;4;
55276;PMS5003;41136;51.478;-2.610;2023-07-20T01:55:10;4;4;
55276;PMS5003;41136;51.478;-2.610;2023-07-20T01:57:35;3;3;
55276;PMS5003;41136;51.478;-2.610;2023-07-20T02:00:01;2;2;
55276;PMS5003;41136;51.478;-2.610;2023-07-20T02:02:26;5;4;
55276;PMS5003;41136;51.478;-2.610;2023-07-20T02:04:51;4;4;
55276;PMS5003;41136;51.478;-2.610;2023-07-20T02:07:17;2;2;
55276;PMS5003;41136;51.478;-2.610;2023-07-20T02:09:42;2;2;
55276;PMS5003;41136;51.478;-2.610;2023-07-20T02:12:08;5;4;
55276;PMS5003;41136;51.478;-2.610;2023-07-20T02:14:33;3;3;
55276;PMS5003;41136;51.478;-2.610;2023-07-20T02:16:58;5;5;
55276;PMS5003;41136;51.478;-2.610;2023-07-20T02:19:24;4;2;
55276;PMS5003;41136;51.478;-2.610;2023-07-20T02:21:49;3;3;
55276;PMS5003;41136;51.478;-2.610;2023-07-20T02:24:14;4;4;
55276;PMS5003;41136;51.478;-2.610;2023-07-20T02:26:39;3;3;
55276;PMS5003;41136;51.478;-2.610;2023-07-20T02:29:05;4;4;
55276;PMS5003;41136;51.478;-2.610;2023-07-20T02:31:30;3;3;
55276;PMS5003;41136;51.478;-2.610;2023-07-20T02:33:55;4;4;
55276;PMS5003;41136;51.478;-2.610;2023-07-20T02:36:21;3;3;
55276;PMS5003;41136;51.478;-2.610;2023-07-20T02:38:46;3;3;
55276;PMS5003;41136;51.478;-2.610;2023-07-20T02:41:12;5;4;
55276;PMS5003;41136;51.478;-2.610;2023-07-20T02:43:37;3;3;
55276;PMS5003;41136;51.478;-2.610;2023-07-20T02:46:02;4;4;
55276;PMS5003;41136;51.478;-2.610;2023-07-20T02:48:27;3;3;
55276;PMS5003;41136;51.478;-2.610;2023-07-20T02:50:53;5;5;
55276;PMS5003;41136;51.478;-2.610;2023-07-20T02:53:18;3;3;
55276;PMS5003;41136;51.478;-2.610;2023-07-20T02:55:43;2;2;
55276;PMS5003;41136;51.478;-2.610;2023-07-20T02:58:08;3;3;
55276;PMS5003;41136;51.478;-2.610;2023-07-20T03:00:34;4;4;
55276;PMS5003;41136;51.478;-2.610;2023-07-20T03:02:59;6;4;
55276;PMS5003;41136;51.478;-2.610;2023-07-20T03:05:24;3;3;
55276;PMS5003;41136;51.478;-2.610;2023-07-20T03:07:50;3;3;
55276;PMS5003;41136;51.478;-2.610;2023-07-20T03:10:15;4;4;
55276;PMS5003;41136;51.478;-2.610;2023-07-20T03:12:40;5;5;
55276;PMS5003;41136;51.478;-2.610;2023-07-20T03:15:06;5;5;
55276;PMS5003;41136;51.478;-2.610;2023-07-20T03:17:31;5;5;
55276;PMS5003;41136;51.478;-2.610;2023-07-20T03:19:56;3;3;
55276;PMS5003;41136;51.478;-2.610;2023-07-20T03:22:21;4;4;
55276;PMS5003;41136;51.478;-2.610;2023-07-20T03:24:47;5;4;
55276;PMS5003;41136;51.478;-2.610;2023-07-20T03:27:12;4;4;
55276;PMS5003;41136;51.478;-2.610;2023-07-20T03:29:37;5;2;
55276;PMS5003;41136;51.478;-2.610;2023-07-20T03:32:03;5;4;
55276;PMS5003;41136;51.478;-2.610;2023-07-20T03:34:28;3;3;
55276;PMS5003;41136;51.478;-2.610;2023-07-20T03:36:53;3;3;
55276;PMS5003;41136;51.478;-2.610;2023-07-20T03:39:19;4;3;
55276;PMS5003;41136;51.478;-2.610;2023-07-20T03:41:44;4;3;
55276;PMS5003;41136;51.478;-2.610;2023-07-20T03:44:09;4;4;
55276;PMS5003;41136;51.478;-2.610;2023-07-20T03:46:35;3;3;
55276;PMS5003;41136;51.478;-2.610;2023-07-20T03:49:00;4;3;
55276;PMS5003;41136;51.478;-2.610;2023-07-20T03:51:25;4;4;
55276;PMS5003;41136;51.478;-2.610;2023-07-20T03:53:51;6;4;
55276;PMS5003;41136;51.478;-2.610;2023-07-20T03:56:16;4;4;
55276;PMS5003;41136;51.478;-2.610;2023-07-20T03:58:41;4;4;
55276;PMS5003;41136;51.478;-2.610;2023-07-20T04:01:07;5;5;
55276;PMS5003;41136;51.478;-2.610;2023-07-20T04:03:32;4;4;
55276;PMS5003;41136;51.478;-2.610;2023-07-20T04:05:57;5;4;
55276;PMS5003;41136;51.478;-2.610;2023-07-20T04:08:23;4;4;
55276;PMS5003;41136;51.478;-2.610;2023-07-20T04:10:48;4;4;
55276;PMS5003;41136;51.478;-2.610;2023-07-20T04:13:13;4;3;
55276;PMS5003;41136;51.478;-2.610;2023-07-20T04:18:34;5;4;
55276;PMS5003;41136;51.478;-2.610;2023-07-20T04:20:59;4;4;
55276;PMS5003;41136;51.478;-2.610;2023-07-20T04:23:24;5;5;
55276;PMS5003;41136;51.478;-2.610;2023-07-20T04:25:50;7;6;
55276;PMS5003;41136;51.478;-2.610;2023-07-20T04:28:15;6;6;
55276;PMS5003;41136;51.478;-2.610;2023-07-20T04:30:40;5;4;
55276;PMS5003;41136;51.478;-2.610;2023-07-20T04:33:05;7;5;
55276;PMS5003;41136;51.478;-2.610;2023-07-20T04:37:56;4;4;
55276;PMS5003;41136;51.478;-2.610;2023-07-20T04:40:21;4;4;
55276;PMS5003;41136;51.478;-2.610;2023-07-20T04:42:47;5;3;
55276;PMS5003;41136;51.478;-2.610;2023-07-20T04:45:12;5;4;
55276;PMS5003;41136;51.478;-2.610;2023-07-20T04:47:38;5;5;
55276;PMS5003;41136;51.478;-2.610;2023-07-20T04:50:04;5;3;
55276;PMS5003;41136;51.478;-2.610;2023-07-20T04:52:29;6;5;
55276;PMS5003;41136;51.478;-2.610;2023-07-20T04:54:54;3;3;
55276;PMS5003;41136;51.478;-2.610;2023-07-20T04:57:19;7;5;
55276;PMS5003;41136;51.478;-2.610;2023-07-20T04:59:44;6;4;
55276;PMS5003;41136;51.478;-2.610;2023-07-20T05:02:10;4;4;
55276;PMS5003;41136;51.478;-2.610;2023-07-20T05:04:35;8;4;
55276;PMS5003;41136;51.478;-2.610;2023-07-20T05:07:00;3;3;
55276;PMS5003;41136;51.478;-2.610;2023-07-20T05:09:26;6;6;
55276;PMS5003;41136;51.478;-2.610;2023-07-20T05:11:52;5;5;
55276;PMS5003;41136;51.478;-2.610;2023-07-20T05:14:17;6;5;
55276;PMS5003;41136;51.478;-2.610;2023-07-20T05:16:42;8;6;
55276;PMS5003;41136;51.478;-2.610;2023-07-20T05:19:07;6;5;
55276;PMS5003;41136;51.478;-2.610;2023-07-20T05:21:33;5;5;
55276;PMS5003;41136;51.478;-2.610;2023-07-20T05:23:58;5;5;
55276;PMS5003;41136;51.478;-2.610;2023-07-20T05:26:24;7;6;
55276;PMS5003;41136;51.478;-2.610;2023-07-20T05:28:49;6;6;
55276;PMS5003;41136;51.478;-2.610;2023-07-20T05:31:14;10;7;
55276;PMS5003;41136;51.478;-2.610;2023-07-20T05:33:39;6;6;
55276;PMS5003;41136;51.478;-2.610;2023-07-20T05:36:05;5;5;
55276;PMS5003;41136;51.478;-2.610;2023-07-20T05:38:30;6;6;
55276;PMS5003;41136;51.478;-2.610;2023-07-20T05:40:58;9;8;
55276;PMS5003;41136;51.478;-2.610;2023-07-20T05:43:21;6;6;
55276;PMS5003;41136;51.478;-2.610;2023-07-20T05:45:47;7;6;
55276;PMS5003;41136;51.478;-2.610;2023-07-20T05:48:12;6;6;
55276;PMS5003;41136;51.478;-2.610;2023-07-20T05:50:37;7;6;
55276;PMS5003;41136;51.478;-2.610;2023-07-20T05:53:02;9;8;
55276;PMS5003;41136;51.478;-2.610;2023-07-20T05:55:28;6;6;
55276;PMS5003;41136;51.478;-2.610;2023-07-20T05:57:53;12;12;
55276;PMS5003;41136;51.478;-2.610;2023-07-20T06:00:20;12;10;
55276;PMS5003;41136;51.478;-2.610;2023-07-20T06:02:44;7;7;
55276;PMS5003;41136;51.478;-2.610;2023-07-20T06:05:10;8;7;
55276;PMS5003;41136;51.478;-2.610;2023-07-20T06:07:35;8;6;
55276;PMS5003;41136;51.478;-2.610;2023-07-20T06:10:00;7;7;
55276;PMS5003;41136;51.478;-2.610;2023-07-20T06:12:26;9;7;
55276;PMS5003;41136;51.478;-2.610;2023-07-20T06:14:51;6;6;
55276;PMS5003;41136;51.478;-2.610;2023-07-20T06:17:17;7;6;
55276;PMS5003;41136;51.478;-2.610;2023-07-20T06:19:42;8;8;
55276;PMS5003;41136;51.478;-2.610;2023-07-20T06:22:07;6;6;
55276;PMS5003;41136;51.478;-2.610;2023-07-20T06:24:33;7;6;
55276;PMS5003;41136;51.478;-2.610;2023-07-20T06:26:58;7;6;
55276;PMS5003;41136;51.478;-2.610;2023-07-20T06:29:23;6;6;
55276;PMS5003;41136;51.478;-2.610;2023-07-20T06:31:48;5;5;
55276;PMS5003;41136;51.478;-2.610;2023-07-20T06:34:14;5;5;
55276;PMS5003;41136;51.478;-2.610;2023-07-20T06:36:39;9;7;
55276;PMS5003;41136;51.478;-2.610;2023-07-20T06:39:04;6;5;
55276;PMS5003;41136;51.478;-2.610;2023-07-20T06:41:30;9;7;
55276;PMS5003;41136;51.478;-2.610;2023-07-20T06:43:55;5;5;
55276;PMS5003;41136;51.478;-2.610;2023-07-20T06:46:20;4;4;
55276;PMS5003;41136;51.478;-2.610;2023-07-20T06:48:45;8;6;
55276;PMS5003;41136;51.478;-2.610;2023-07-20T06:51:11;8;6;
55276;PMS5003;41136;51.478;-2.610;2023-07-20T06:53:36;5;5;
55276;PMS5003;41136;51.478;-2.610;2023-07-20T06:56:01;7;5;
55276;PMS5003;41136;51.478;-2.610;2023-07-20T06:58:26;6;6;
55276;PMS5003;41136;51.478;-2.610;2023-07-20T07:00:52;7;6;
55276;PMS5003;41136;51.478;-2.610;2023-07-20T07:03:17;5;5;
55276;PMS5003;41136;51.478;-2.610;2023-07-20T07:05:42;7;7;
55276;PMS5003;41136;51.478;-2.610;2023-07-20T07:08:08;7;6;
55276;PMS5003;41136;51.478;-2.610;2023-07-20T07:10:34;5;5;
55276;PMS5003;41136;51.478;-2.610;2023-07-20T07:12:58;4;4;
55276;PMS5003;41136;51.478;-2.610;2023-07-20T07:15:23;3;3;
55276;PMS5003;41136;51.478;-2.610;2023-07-20T07:17:49;4;4;
55276;PMS5003;41136;51.478;-2.610;2023-07-20T07:20:14;3;3;
55276;PMS5003;41136;51.478;-2.610;2023-07-20T07:22:39;3;3;
55276;PMS5003;41136;51.478;-2.610;2023-07-20T07:25:05;3;3;
55276;PMS5003;41136;51.478;-2.610;2023-07-20T07:27:30;3;3;
55276;PMS5003;41136;51.478;-2.610;2023-07-20T07:29:55;3;3;
55276;PMS5003;41136;51.478;-2.610;2023-07-20T07:32:20;5;5;
55276;PMS5003;41136;51.478;-2.610;2023-07-20T07:34:46;7;7;
55276;PMS5003;41136;51.478;-2.610;2023-07-20T07:37:11;5;5;
55276;PMS5003;41136;51.478;-2.610;2023-07-20T07:39:36;4;4;
55276;PMS5003;41136;51.478;-2.610;2023-07-20T07:42:01;4;4;
55276;PMS5003;41136;51.478;-2.610;2023-07-20T07:44:27;5;4;
55276;PMS5003;41136;51.478;-2.610;2023-07-20T07:46:52;5;5;
55276;PMS5003;41136;51.478;-2.610;2023-07-20T07:49:17;3;3;
55276;PMS5003;41136;51.478;-2.610;2023-07-20T07:51:42;5;5;
55276;PMS5003;41136;51.478;-2.610;2023-07-20T07:54:07;7;7;
55276;PMS5003;41136;51.478;-2.610;2023-07-20T07:56:33;5;4;
55276;PMS5003;41136;51.478;-2.610;2023-07-20T07:58:58;5;5;
55276;PMS5003;41136;51.478;-2.610;2023-07-20T08:01:23;7;5;
55276;PMS5003;41136;51.478;-2.610;2023-07-20T08:03:49;5;4;
55276;PMS5003;41136;51.478;-2.610;2023-07-20T08:06:14;4;4;
55276;PMS5003;41136;51.478;-2.610;2023-07-20T08:08:39;6;4;
55276;PMS5003;41136;51.478;-2.610;2023-07-20T08:11:04;8;5;
55276;PMS5003;41136;51.478;-2.610;2023-07-20T08:13:29;3;3;
55276;PMS5003;41136;51.478;-2.610;2023-07-20T08:15:55;5;4;
55276;PMS5003;41136;51.478;-2.610;2023-07-20T08:18:20;4;4;
55276;PMS5003;41136;51.478;-2.610;2023-07-20T08:20:45;6;4;
55276;PMS5003;41136;51.478;-2.610;2023-07-20T08:23:10;5;5;
55276;PMS5003;41136;51.478;-2.610;2023-07-20T08:25:36;5;5;
55276;PMS5003;41136;51.478;-2.610;2023-07-20T08:28:01;6;5;
55276;PMS5003;41136;51.478;-2.610;2023-07-20T08:30:26;5;5;
55276;PMS5003;41136;51.478;-2.610;2023-07-20T08:32:52;6;4;
55276;PMS5003;41136;51.478;-2.610;2023-07-20T08:35:17;3;3;
55276;PMS5003;41136;51.478;-2.610;2023-07-20T08:37:42;4;4;
55276;PMS5003;41136;51.478;-2.610;2023-07-20T08:40:08;3;3;
55276;PMS5003;41136;51.478;-2.610;2023-07-20T08:42:32;4;4;
55276;PMS5003;41136;51.478;-2.610;2023-07-20T08:44:58;4;4;
55276;PMS5003;41136;51.478;-2.610;2023-07-20T08:47:23;4;4;
55276;PMS5003;41136;51.478;-2.610;2023-07-20T08:49:48;2;2;
55276;PMS5003;41136;51.478;-2.610;2023-07-20T08:52:13;3;3;
55276;PMS5003;41136;51.478;-2.610;2023-07-20T08:54:39;3;3;
55276;PMS5003;41136;51.478;-2.610;2023-07-20T08:57:05;3;3;
55276;PMS5003;41136;51.478;-2.610;2023-07-20T08:59:29;4;4;
55276;PMS5003;41136;51.478;-2.610;2023-07-20T09:01:55;2;2;
55276;PMS5003;41136;51.478;-2.610;2023-07-20T09:04:20;6;3;
55276;PMS5003;41136;51.478;-2.610;2023-07-20T09:06:45;1;1;
55276;PMS5003;41136;51.478;-2.610;2023-07-20T09:09:10;4;4;
55276;PMS5003;41136;51.478;-2.610;2023-07-20T09:11:36;2;2;
55276;PMS5003;41136;51.478;-2.610;2023-07-20T09:14:03;3;3;
55276;PMS5003;41136;51.478;-2.610;2023-07-20T09:16:26;2;2;
55276;PMS5003;41136;51.478;-2.610;2023-07-20T09:18:51;4;3;
55276;PMS5003;41136;51.478;-2.610;2023-07-20T09:21:17;3;3;
55276;PMS5003;41136;51.478;-2.610;2023-07-20T09:23:42;5;4;
55276;PMS5003;41136;51.478;-2.610;2023-07-20T09:26:09;3;3;
55276;PMS5003;41136;51.478;-2.610;2023-07-20T09:28:33;4;4;
55276;PMS5003;41136;51.478;-2.610;2023-07-20T09:30:58;6;5;
55276;PMS5003;41136;51.478;-2.610;2023-07-20T09:33:23;7;5;
55276;PMS5003;41136;51.478;-2.610;2023-07-20T09:35:48;4;4;
55276;PMS5003;41136;51.478;-2.610;2023-07-20T09:38:14;3;3;
55276;PMS5003;41136;51.478;-2.610;2023-07-20T09:40:39;6;6;
55276;PMS5003;41136;51.478;-2.610;2023-07-20T09:43:07;5;5;
55276;PMS5003;41136;51.478;-2.610;2023-07-20T09:45:29;6;5;
55276;PMS5003;41136;51.478;-2.610;2023-07-20T09:47:55;5;5;
55276;PMS5003;41136;51.478;-2.610;2023-07-20T09:50:20;6;5;
55276;PMS5003;41136;51.478;-2.610;2023-07-20T09:52:45;6;6;
55276;PMS5003;41136;51.478;-2.610;2023-07-20T09:55:12;5;5;
55276;PMS5003;41136;51.478;-2.610;2023-07-20T09:57:36;7;6;
55276;PMS5003;41136;51.478;-2.610;2023-07-20T10:00:01;6;6;
55276;PMS5003;41136;51.478;-2.610;2023-07-20T10:02:28;6;5;
55276;PMS5003;41136;51.478;-2.610;2023-07-20T10:04:52;4;4;
55276;PMS5003;41136;51.478;-2.610;2023-07-20T10:07:17;6;4;
55276;PMS5003;41136;51.478;-2.610;2023-07-20T10:09:42;7;4;
55276;PMS5003;41136;51.478;-2.610;2023-07-20T10:12:07;5;4;
55276;PMS5003;41136;51.478;-2.610;2023-07-20T10:14:32;5;4;
55276;PMS5003;41136;51.478;-2.610;2023-07-20T10:16:58;5;5;
55276;PMS5003;41136;51.478;-2.610;2023-07-20T10:19:24;5;4;
55276;PMS5003;41136;51.478;-2.610;2023-07-20T10:21:48;3;3;
55276;PMS5003;41136;51.478;-2.610;2023-07-20T10:24:13;6;4;
55276;PMS5003;41136;51.478;-2.610;2023-07-20T10:26:39;3;2;
55276;PMS5003;41136;51.478;-2.610;2023-07-20T10:29:04;5;5;
55276;PMS5003;41136;51.478;-2.610;2023-07-20T10:31:29;3;3;
55276;PMS5003;41136;51.478;-2.610;2023-07-20T10:33:54;3;3;
55276;PMS5003;41136;51.478;-2.610;2023-07-20T10:36:24;4;3;
55276;PMS5003;41136;51.478;-2.610;2023-07-20T10:43:35;4;3;
55276;PMS5003;41136;51.478;-2.610;2023-07-20T10:46:01;5;4;
55276;PMS5003;41136;51.478;-2.610;2023-07-20T10:48:26;4;4;
55276;PMS5003;41136;51.478;-2.610;2023-07-20T10:53:17;4;4;
55276;PMS5003;41136;51.478;-2.610;2023-07-20T10:55:41;2;2;
55276;PMS5003;41136;51.478;-2.610;2023-07-20T10:58:07;4;4;
55276;PMS5003;41136;51.478;-2.610;2023-07-20T11:00:32;2;2;
55276;PMS5003;41136;51.478;-2.610;2023-07-20T11:02:58;2;2;
55276;PMS5003;41136;51.478;-2.610;2023-07-20T11:07:47;4;4;
55276;PMS5003;41136;51.478;-2.610;2023-07-20T11:10:13;4;3;
55276;PMS5003;41136;51.478;-2.610;2023-07-20T11:12:38;3;3;
55276;PMS5003;41136;51.478;-2.610;2023-07-20T11:15:03;3;3;
55276;PMS5003;41136;51.478;-2.610;2023-07-20T11:17:29;2;2;
55276;PMS5003;41136;51.478;-2.610;2023-07-20T11:19:55;3;3;
55276;PMS5003;41136;51.478;-2.610;2023-07-20T11:22:19;2;2;
55276;PMS5003;41136;51.478;-2.610;2023-07-20T11:24:44;3;3;
55276;PMS5003;41136;51.478;-2.610;2023-07-20T11:27:09;5;3;
55276;PMS5003;41136;51.478;-2.610;2023-07-20T11:29:35;2;2;
55276;PMS5003;41136;51.478;-2.610;2023-07-20T11:32:00;2;2;
55276;PMS5003;41136;51.478;-2.610;2023-07-20T11:34:25;4;4;
55276;PMS5003;41136;51.478;-2.610;2023-07-20T11:36:51;3;3;
55276;PMS5003;41136;51.478;-2.610;2023-07-20T11:39:16;3;3;
55276;PMS5003;41136;51.478;-2.610;2023-07-20T11:41:43;2;2;
55276;PMS5003;41136;51.478;-2.610;2023-07-20T11:44:06;4;3;
55276;PMS5003;41136;51.478;-2.610;2023-07-20T11:46:31;1;1;
55276;PMS5003;41136;51.478;-2.610;2023-07-20T11:48:57;3;3;
55276;PMS5003;41136;51.478;-2.610;2023-07-20T11:51:22;5;5;
55276;PMS5003;41136;51.478;-2.610;2023-07-20T11:53:47;4;1;
55276;PMS5003;41136;51.478;-2.610;2023-07-20T11:56:12;2;2;
55276;PMS5003;41136;51.478;-2.610;2023-07-20T11:58:41;4;3;
55276;PMS5003;41136;51.478;-2.610;2023-07-20T12:01:02;5;3;
55276;PMS5003;41136;51.478;-2.610;2023-07-20T12:03:28;3;3;
55276;PMS5003;41136;51.478;-2.610;2023-07-20T12:05:53;3;3;
55276;PMS5003;41136;51.478;-2.610;2023-07-20T12:08:18;2;2;
55276;PMS5003;41136;51.478;-2.610;2023-07-20T12:10:43;3;3;
55276;PMS5003;41136;51.478;-2.610;2023-07-20T12:13:09;2;2;
55276;PMS5003;41136;51.478;-2.610;2023-07-20T12:15:34;4;4;
55276;PMS5003;41136;51.478;-2.610;2023-07-20T12:18:00;3;3;
55276;PMS5003;41136;51.478;-2.610;2023-07-20T12:20:24;5;5;
55276;PMS5003;41136;51.478;-2.610;2023-07-20T12:22:50;3;3;
55276;PMS5003;41136;51.478;-2.610;2023-07-20T12:25:15;4;4;
55276;PMS5003;41136;51.478;-2.610;2023-07-20T12:27:40;2;2;
55276;PMS5003;41136;51.478;-2.610;2023-07-20T12:30:06;5;5;
55276;PMS5003;41136;51.478;-2.610;2023-07-20T12:32:30;6;5;
55276;PMS5003;41136;51.478;-2.610;2023-07-20T12:34:55;3;3;
55276;PMS5003;41136;51.478;-2.610;2023-07-20T12:37:21;4;4;
55276;PMS5003;41136;51.478;-2.610;2023-07-20T12:39:46;4;4;
55276;PMS5003;41136;51.478;-2.610;2023-07-20T12:42:11;6;4;
55276;PMS5003;41136;51.478;-2.610;2023-07-20T12:44:36;6;6;
55276;PMS5003;41136;51.478;-2.610;2023-07-20T12:47:02;5;5;
55276;PMS5003;41136;51.478;-2.610;2023-07-20T12:49:27;9;7;
55276;PMS5003;41136;51.478;-2.610;2023-07-20T12:51:52;5;5;
55276;PMS5003;41136;51.478;-2.610;2023-07-20T12:54:17;5;5;
55276;PMS5003;41136;51.478;-2.610;2023-07-20T12:56:43;5;5;
55276;PMS5003;41136;51.478;-2.610;2023-07-20T12:59:08;6;6;
55276;PMS5003;41136;51.478;-2.610;2023-07-20T13:01:33;6;6;
55276;PMS5003;41136;51.478;-2.610;2023-07-20T13:03:58;5;4;
55276;PMS5003;41136;51.478;-2.610;2023-07-20T13:06:24;9;7;
55276;PMS5003;41136;51.478;-2.610;2023-07-20T13:08:49;8;7;
55276;PMS5003;41136;51.478;-2.610;2023-07-20T13:11:14;8;7;
55276;PMS5003;41136;51.478;-2.610;2023-07-20T13:13:39;7;7;
55276;PMS5003;41136;51.478;-2.610;2023-07-20T13:16:04;12;10;
55276;PMS5003;41136;51.478;-2.610;2023-07-20T13:18:30;12;10;
55276;PMS5003;41136;51.478;-2.610;2023-07-20T13:20:55;12;10;
55276;PMS5003;41136;51.478;-2.610;2023-07-20T13:23:21;12;11;
55276;PMS5003;41136;51.478;-2.610;2023-07-20T13:25:46;11;11;
55276;PMS5003;41136;51.478;-2.610;2023-07-20T13:28:12;10;10;
55276;PMS5003;41136;51.478;-2.610;2023-07-20T13:30:37;11;11;
55276;PMS5003;41136;51.478;-2.610;2023-07-20T13:33:02;10;10;
55276;PMS5003;41136;51.478;-2.610;2023-07-20T13:35:28;7;7;
55276;PMS5003;41136;51.478;-2.610;2023-07-20T13:37:53;9;9;
55276;PMS5003;41136;51.478;-2.610;2023-07-20T13:40:18;7;7;
55276;PMS5003;41136;51.478;-2.610;2023-07-20T13:42:43;9;8;
55276;PMS5003;41136;51.478;-2.610;2023-07-20T13:45:09;8;7;
55276;PMS5003;41136;51.478;-2.610;2023-07-20T13:47:34;9;8;
55276;PMS5003;41136;51.478;-2.610;2023-07-20T13:49:59;9;9;
55276;PMS5003;41136;51.478;-2.610;2023-07-20T13:52:25;8;8;
55276;PMS5003;41136;51.478;-2.610;2023-07-20T13:54:50;10;10;
55276;PMS5003;41136;51.478;-2.610;2023-07-20T13:57:16;8;8;
55276;PMS5003;41136;51.478;-2.610;2023-07-20T13:59:41;8;8;
55276;PMS5003;41136;51.478;-2.610;2023-07-20T14:02:06;9;9;
55276;PMS5003;41136;51.478;-2.610;2023-07-20T14:04:31;10;10;
55276;PMS5003;41136;51.478;-2.610;2023-07-20T14:06:57;10;8;
55276;PMS5003;41136;51.478;-2.610;2023-07-20T14:09:22;7;7;
55276;PMS5003;41136;51.478;-2.610;2023-07-20T14:11:47;8;8;
55276;PMS5003;41136;51.478;-2.610;2023-07-20T14:14:12;10;9;
55276;PMS5003;41136;51.478;-2.610;2023-07-20T14:16:38;9;9;
55276;PMS5003;41136;51.478;-2.610;2023-07-20T14:19:03;7;7;
55276;PMS5003;41136;51.478;-2.610;2023-07-20T14:21:29;7;7;
55276;PMS5003;41136;51.478;-2.610;2023-07-20T14:23:54;10;8;
55276;PMS5003;41136;51.478;-2.610;2023-07-20T14:26:20;6;6;
55276;PMS5003;41136;51.478;-2.610;2023-07-20T14:28:45;10;10;
55276;PMS5003;41136;51.478;-2.610;2023-07-20T14:31:11;7;7;
55276;PMS5003;41136;51.478;-2.610;2023-07-20T14:33:36;9;7;
55276;PMS5003;41136;51.478;-2.610;2023-07-20T14:36:01;7;7;
55276;PMS5003;41136;51.478;-2.610;2023-07-20T14:38:26;5;5;
55276;PMS5003;41136;51.478;-2.610;2023-07-20T14:40:52;7;6;
55276;PMS5003;41136;51.478;-2.610;2023-07-20T14:43:17;7;7;
55276;PMS5003;41136;51.478;-2.610;2023-07-20T14:45:42;8;6;
55276;PMS5003;41136;51.478;-2.610;2023-07-20T14:48:07;7;7;
55276;PMS5003;41136;51.478;-2.610;2023-07-20T14:50:32;7;7;
55276;PMS5003;41136;51.478;-2.610;2023-07-20T14:52:58;7;7;
55276;PMS5003;41136;51.478;-2.610;2023-07-20T14:55:24;8;8;
55276;PMS5003;41136;51.478;-2.610;2023-07-20T14:57:49;5;5;
55276;PMS5003;41136;51.478;-2.610;2023-07-20T15:00:14;7;5;
55276;PMS5003;41136;51.478;-2.610;2023-07-20T15:02:39;5;5;
55276;PMS5003;41136;51.478;-2.610;2023-07-20T15:05:05;5;5;
55276;PMS5003;41136;51.478;-2.610;2023-07-20T15:07:30;5;5;
55276;PMS5003;41136;51.478;-2.610;2023-07-20T15:09:55;3;3;
55276;PMS5003;41136;51.478;-2.610;2023-07-20T15:12:20;3;3;
55276;PMS5003;41136;51.478;-2.610;2023-07-20T15:14:49;3;3;
55276;PMS5003;41136;51.478;-2.610;2023-07-20T15:17:11;2;1;
55276;PMS5003;41136;51.478;-2.610;2023-07-20T15:19:36;5;4;
55276;PMS5003;41136;51.478;-2.610;2023-07-20T15:22:01;4;4;
55276;PMS5003;41136;51.478;-2.610;2023-07-20T15:24:27;3;3;
55276;PMS5003;41136;51.478;-2.610;2023-07-20T15:26:52;4;3;
55276;PMS5003;41136;51.478;-2.610;2023-07-20T15:29:17;3;3;
55276;PMS5003;41136;51.478;-2.610;2023-07-20T15:31:42;5;4;
55276;PMS5003;41136;51.478;-2.610;2023-07-20T15:34:08;5;5;
55276;PMS5003;41136;51.478;-2.610;2023-07-20T15:36:33;4;4;
55276;PMS5003;41136;51.478;-2.610;2023-07-20T15:38:58;4;4;
55276;PMS5003;41136;51.478;-2.610;2023-07-20T15:41:24;4;4;
55276;PMS5003;41136;51.478;-2.610;2023-07-20T15:43:49;4;4;
55276;PMS5003;41136;51.478;-2.610;2023-07-20T15:48:39;5;3;
55276;PMS5003;41136;51.478;-2.610;2023-07-20T15:51:05;3;3;
55276;PMS5003;41136;51.478;-2.610;2023-07-20T15:53:30;5;3;
55276;PMS5003;41136;51.478;-2.610;2023-07-20T15:55:55;3;3;
55276;PMS5003;41136;51.478;-2.610;2023-07-20T15:59:55;6;5;
55276;PMS5003;41136;51.478;-2.610;2023-07-20T16:02:20;5;5;
55276;PMS5003;41136;51.478;-2.610;2023-07-20T16:04:45;4;4;
55276;PMS5003;41136;51.478;-2.610;2023-07-20T16:12:12;3;3;
55276;PMS5003;41136;51.478;-2.610;2023-07-20T16:17:50;5;5;
55276;PMS5003;41136;51.478;-2.610;2023-07-20T16:20:15;2;2;
55276;PMS5003;41136;51.478;-2.610;2023-07-20T16:22:40;3;3;
55276;PMS5003;41136;51.478;-2.610;2023-07-20T16:25:06;3;3;
55276;PMS5003;41136;51.478;-2.610;2023-07-20T16:27:31;3;3;
55276;PMS5003;41136;51.478;-2.610;2023-07-20T16:33:53;5;5;
55276;PMS5003;41136;51.478;-2.610;2023-07-20T16:36:23;4;4;
55276;PMS5003;41136;51.478;-2.610;2023-07-20T16:38:43;4;4;
55276;PMS5003;41136;51.478;-2.610;2023-07-20T16:44:24;3;3;
55276;PMS5003;41136;51.478;-2.610;2023-07-20T16:46:49;4;4;
55276;PMS5003;41136;51.478;-2.610;2023-07-20T16:49:15;5;3;
55276;PMS5003;41136;51.478;-2.610;2023-07-20T16:51:40;3;3;
55276;PMS5003;41136;51.478;-2.610;2023-07-20T16:54:05;5;4;
55276;PMS5003;41136;51.478;-2.610;2023-07-20T16:56:30;3;2;
55276;PMS5003;41136;51.478;-2.610;2023-07-20T17:00:33;3;2;